sensor_id;sensor_type;location;lat;lon;timestamp;pressure;altitude;pressure_sealevel;temperature;humidity
9521;BME280;4798;41.574;23.734;2023-01-30T00:01:13;95484.91;;;5.52;71.39
9521;BME280;4798;41.574;23.734;2023-01-30T00:03:43;95494.41;;;5.81;70.63
9521;BME280;4798;41.574;23.734;2023-01-30T00:06:12;95412.63;;;5.38;68.06
9521;BME280;4798;41.574;23.734;2023-01-30T00:08:40;95492.81;;;5.92;68.78
9521;BME280;4798;41.574;23.734;2023-01-30T00:11:10;95492.72;;;5.87;68.79
9521;BME280;4798;41.574;23.734;2023-01-30T00:13:39;95494.16;;;5.94;69.29
9521;BME280;4798;41.574;23.734;2023-01-30T00:16:08;95482.44;;;5.73;68.98
9521;BME280;4798;41.574;23.734;2023-01-30T00:18:37;95484.22;;;5.85;71.74
9521;BME280;4798;41.574;23.734;2023-01-30T00:21:08;95459.72;;;5.28;69.24
9521;BME280;4798;41.574;23.734;2023-01-30T00:23:38;95489.09;;;5.01;71.19
9521;BME280;4798;41.574;23.734;2023-01-30T00:26:06;95487.06;;;4.69;73.42
9521;BME280;4798;41.574;23.734;2023-01-30T00:28:35;95494.91;;;3.93;76.34
9521;BME280;4798;41.574;23.734;2023-01-30T00:31:04;95492.66;;;4.37;77.83
9521;BME280;4798;41.574;23.734;2023-01-30T00:33:32;95481.31;;;4.14;77.24
9521;BME280;4798;41.574;23.734;2023-01-30T00:36:03;95486.25;;;3.62;79.28
9521;BME280;4798;41.574;23.734;2023-01-30T00:38:33;95477.97;;;3.65;80.33
9521;BME280;4798;41.574;23.734;2023-01-30T00:41:01;95486.56;;;3.54;80.40
9521;BME280;4798;41.574;23.734;2023-01-30T00:43:31;95484.69;;;3.43;81.50
9521;BME280;4798;41.574;23.734;2023-01-30T00:46:23;95479.78;;;3.65;82.69
9521;BME280;4798;41.574;23.734;2023-01-30T00:49:12;95468.63;;;3.69;81.00
9521;BME280;4798;41.574;23.734;2023-01-30T00:51:41;95467.06;;;4.21;85.25
9521;BME280;4798;41.574;23.734;2023-01-30T00:54:10;95447.66;;;4.11;79.71
9521;BME280;4798;41.574;23.734;2023-01-30T00:56:39;95455.06;;;4.14;79.28
9521;BME280;4798;41.574;23.734;2023-01-30T00:59:07;95450.75;;;4.31;79.38
9521;BME280;4798;41.574;23.734;2023-01-30T01:01:35;95454.19;;;4.43;78.51
9521;BME280;4798;41.574;23.734;2023-01-30T01:04:04;95446.91;;;4.45;77.02
9521;BME280;4798;41.574;23.734;2023-01-30T01:06:34;95444.06;;;4.70;79.82
9521;BME280;4798;41.574;23.734;2023-01-30T01:09:03;95433.31;;;4.60;75.55
9521;BME280;4798;41.574;23.734;2023-01-30T01:11:33;95446.19;;;4.15;79.39
9521;BME280;4798;41.574;23.734;2023-01-30T01:14:03;95436.03;;;4.07;78.88
9521;BME280;4798;41.574;23.734;2023-01-30T01:16:32;95425.97;;;4.04;78.87
9521;BME280;4798;41.574;23.734;2023-01-30T01:19:02;95434.78;;;4.21;79.25
9521;BME280;4798;41.574;23.734;2023-01-30T01:21:30;95441.66;;;4.57;81.30
9521;BME280;4798;41.574;23.734;2023-01-30T01:23:59;95432.06;;;4.27;78.72
9521;BME280;4798;41.574;23.734;2023-01-30T01:26:27;95436.81;;;3.66;80.46
9521;BME280;4798;41.574;23.734;2023-01-30T01:28:58;95427.91;;;3.26;82.91
9521;BME280;4798;41.574;23.734;2023-01-30T01:31:26;95419.97;;;3.14;85.63
9521;BME280;4798;41.574;23.734;2023-01-30T01:33:55;95432.72;;;2.92;86.19
9521;BME280;4798;41.574;23.734;2023-01-30T01:36:23;95425.25;;;2.96;87.89
9521;BME280;4798;41.574;23.734;2023-01-30T01:39:11;95419.00;;;2.61;90.13
9521;BME280;4798;41.574;23.734;2023-01-30T01:41:40;95342.09;;;2.01;92.03
9521;BME280;4798;41.574;23.734;2023-01-30T01:44:10;95427.56;;;2.68;92.40
9521;BME280;4798;41.574;23.734;2023-01-30T01:46:42;95409.66;;;2.46;92.56
9521;BME280;4798;41.574;23.734;2023-01-30T01:49:15;95249.06;;;1.32;94.21
9521;BME280;4798;41.574;23.734;2023-01-30T01:51:49;95408.53;;;2.36;95.19
9521;BME280;4798;41.574;23.734;2023-01-30T01:54:24;95413.47;;;2.26;96.69
9521;BME280;4798;41.574;23.734;2023-01-30T01:56:54;95400.16;;;2.09;97.38
9521;BME280;4798;41.574;23.734;2023-01-30T01:59:26;95347.00;;;2.33;95.04
9521;BME280;4798;41.574;23.734;2023-01-30T02:01:59;95411.13;;;2.61;92.85
9521;BME280;4798;41.574;23.734;2023-01-30T02:04:30;95395.34;;;2.49;92.42
9521;BME280;4798;41.574;23.734;2023-01-30T02:07:17;95408.66;;;2.47;94.09
9521;BME280;4798;41.574;23.734;2023-01-30T02:09:49;95405.59;;;2.87;94.82
9521;BME280;4798;41.574;23.734;2023-01-30T02:12:18;95385.75;;;2.97;90.60
9521;BME280;4798;41.574;23.734;2023-01-30T02:14:49;95391.78;;;3.57;87.35
9521;BME280;4798;41.574;23.734;2023-01-30T02:17:18;95395.22;;;3.58;86.01
9521;BME280;4798;41.574;23.734;2023-01-30T02:19:50;95361.03;;;3.53;83.40
9521;BME280;4798;41.574;23.734;2023-01-30T02:22:35;95371.34;;;4.01;82.33
9521;BME280;4798;41.574;23.734;2023-01-30T02:28:39;95391.09;;;4.26;80.25
9521;BME280;4798;41.574;23.734;2023-01-30T02:31:30;95214.47;;;3.05;78.72
9521;BME280;4798;41.574;23.734;2023-01-30T02:34:14;95386.31;;;4.12;78.76
9521;BME280;4798;41.574;23.734;2023-01-30T02:36:52;95401.97;;;4.30;78.31
9521;BME280;4798;41.574;23.734;2023-01-30T02:39:31;95393.03;;;4.31;78.59
9521;BME280;4798;41.574;23.734;2023-01-30T02:42:09;95317.06;;;3.78;78.69
9521;BME280;4798;41.574;23.734;2023-01-30T02:44:46;95358.03;;;4.14;78.82
9521;BME280;4798;41.574;23.734;2023-01-30T02:47:24;95209.72;;;3.25;79.96
9521;BME280;4798;41.574;23.734;2023-01-30T02:50:01;95398.28;;;4.19;79.17
9521;BME280;4798;41.574;23.734;2023-01-30T02:52:32;95318.56;;;3.74;78.69
9521;BME280;4798;41.574;23.734;2023-01-30T02:55:06;95387.91;;;4.24;78.39
9521;BME280;4798;41.574;23.734;2023-01-30T02:57:35;95385.97;;;4.20;77.28
9521;BME280;4798;41.574;23.734;2023-01-30T03:00:05;95387.13;;;4.24;76.81
9521;BME280;4798;41.574;23.734;2023-01-30T03:02:43;95396.22;;;4.33;76.70
9521;BME280;4798;41.574;23.734;2023-01-30T03:05:29;95389.03;;;4.28;76.58
9521;BME280;4798;41.574;23.734;2023-01-30T03:08:13;95386.44;;;4.17;75.85
9521;BME280;4798;41.574;23.734;2023-01-30T03:10:51;95381.63;;;4.14;76.52
9521;BME280;4798;41.574;23.734;2023-01-30T03:13:28;95371.69;;;3.81;76.89
9521;BME280;4798;41.574;23.734;2023-01-30T03:16:02;95299.16;;;3.52;76.99
9521;BME280;4798;41.574;23.734;2023-01-30T03:18:32;95361.78;;;3.95;77.64
9521;BME280;4798;41.574;23.734;2023-01-30T03:21:03;95371.03;;;4.09;76.81
9521;BME280;4798;41.574;23.734;2023-01-30T03:23:32;95331.06;;;3.72;76.74
9521;BME280;4798;41.574;23.734;2023-01-30T03:26:03;95380.84;;;4.02;76.85
9521;BME280;4798;41.574;23.734;2023-01-30T03:28:32;95378.34;;;4.07;76.92
9521;BME280;4798;41.574;23.734;2023-01-30T03:31:01;95379.66;;;3.98;76.66
9521;BME280;4798;41.574;23.734;2023-01-30T03:33:29;95354.34;;;3.80;77.07
9521;BME280;4798;41.574;23.734;2023-01-30T03:35:59;95367.38;;;3.87;77.19
9521;BME280;4798;41.574;23.734;2023-01-30T03:38:28;95379.34;;;4.06;77.42
9521;BME280;4798;41.574;23.734;2023-01-30T03:40:59;95380.34;;;3.93;77.45
9521;BME280;4798;41.574;23.734;2023-01-30T03:43:27;95334.25;;;3.51;76.64
9521;BME280;4798;41.574;23.734;2023-01-30T03:45:56;95378.88;;;3.85;76.89
9521;BME280;4798;41.574;23.734;2023-01-30T03:48:24;95366.41;;;3.69;76.90
9521;BME280;4798;41.574;23.734;2023-01-30T03:50:52;95386.91;;;3.72;76.46
9521;BME280;4798;41.574;23.734;2023-01-30T03:53:22;95384.31;;;3.72;76.95
9521;BME280;4798;41.574;23.734;2023-01-30T03:55:51;95378.09;;;3.44;76.61
9521;BME280;4798;41.574;23.734;2023-01-30T03:58:19;95372.31;;;3.65;77.16
9521;BME280;4798;41.574;23.734;2023-01-30T04:00:47;95293.16;;;3.21;76.63
9521;BME280;4798;41.574;23.734;2023-01-30T04:03:15;95317.47;;;3.52;76.68
9521;BME280;4798;41.574;23.734;2023-01-30T04:05:44;95320.78;;;3.47;76.86
9521;BME280;4798;41.574;23.734;2023-01-30T04:08:12;95362.88;;;3.64;76.95
9521;BME280;4798;41.574;23.734;2023-01-30T04:10:42;95354.81;;;3.36;78.12
9521;BME280;4798;41.574;23.734;2023-01-30T04:13:10;95338.34;;;3.17;78.22
9521;BME280;4798;41.574;23.734;2023-01-30T04:15:38;95328.06;;;3.34;77.41
9521;BME280;4798;41.574;23.734;2023-01-30T04:18:07;95165.13;;;2.37;76.78
9521;BME280;4798;41.574;23.734;2023-01-30T04:20:35;95351.91;;;3.67;76.63
9521;BME280;4798;41.574;23.734;2023-01-30T04:23:04;95316.09;;;3.38;75.77
9521;BME280;4798;41.574;23.734;2023-01-30T04:25:32;95339.63;;;3.56;76.15
9521;BME280;4798;41.574;23.734;2023-01-30T04:28:02;95360.13;;;3.59;76.06
9521;BME280;4798;41.574;23.734;2023-01-30T04:30:30;95335.31;;;3.32;76.67
9521;BME280;4798;41.574;23.734;2023-01-30T04:32:59;95283.66;;;2.68;77.50
9521;BME280;4798;41.574;23.734;2023-01-30T04:35:27;95338.06;;;2.77;78.32
9521;BME280;4798;41.574;23.734;2023-01-30T04:37:55;95381.84;;;2.88;78.20
9521;BME280;4798;41.574;23.734;2023-01-30T04:40:24;95370.16;;;2.73;79.14
9521;BME280;4798;41.574;23.734;2023-01-30T04:42:52;95237.34;;;1.84;79.67
9521;BME280;4798;41.574;23.734;2023-01-30T04:45:22;95375.94;;;2.75;79.63
9521;BME280;4798;41.574;23.734;2023-01-30T04:47:50;95356.09;;;2.49;80.91
9521;BME280;4798;41.574;23.734;2023-01-30T04:50:19;95383.00;;;2.13;82.79
9521;BME280;4798;41.574;23.734;2023-01-30T04:52:47;95385.16;;;1.73;85.34
9521;BME280;4798;41.574;23.734;2023-01-30T04:55:15;95351.22;;;1.42;89.44
9521;BME280;4798;41.574;23.734;2023-01-30T04:57:44;95364.75;;;1.64;89.92
9521;BME280;4798;41.574;23.734;2023-01-30T05:00:13;95154.53;;;0.25;91.13
9521;BME280;4798;41.574;23.734;2023-01-30T05:02:43;95374.47;;;1.50;92.09
9521;BME280;4798;41.574;23.734;2023-01-30T05:05:11;95371.84;;;1.57;93.00
9521;BME280;4798;41.574;23.734;2023-01-30T05:07:39;95300.44;;;1.13;92.84
9521;BME280;4798;41.574;23.734;2023-01-30T05:10:09;95368.84;;;1.53;93.14
9521;BME280;4798;41.574;23.734;2023-01-30T05:12:37;95361.13;;;1.89;91.30
9521;BME280;4798;41.574;23.734;2023-01-30T05:15:06;95352.44;;;2.14;88.74
9521;BME280;4798;41.574;23.734;2023-01-30T05:17:35;95375.44;;;2.30;87.71
9521;BME280;4798;41.574;23.734;2023-01-30T05:20:07;95375.28;;;2.43;86.83
9521;BME280;4798;41.574;23.734;2023-01-30T05:22:35;95168.97;;;1.08;86.34
9521;BME280;4798;41.574;23.734;2023-01-30T05:25:04;95371.44;;;2.45;86.15
9521;BME280;4798;41.574;23.734;2023-01-30T05:27:33;95352.47;;;2.32;85.79
9521;BME280;4798;41.574;23.734;2023-01-30T05:30:01;95316.41;;;1.98;84.45
9521;BME280;4798;41.574;23.734;2023-01-30T05:32:29;95297.38;;;1.90;83.63
9521;BME280;4798;41.574;23.734;2023-01-30T05:34:58;95372.19;;;2.52;83.74
9521;BME280;4798;41.574;23.734;2023-01-30T05:37:27;95381.47;;;2.67;82.01
9521;BME280;4798;41.574;23.734;2023-01-30T05:39:56;95392.06;;;2.35;82.14
9521;BME280;4798;41.574;23.734;2023-01-30T05:42:24;95361.47;;;1.93;82.71
9521;BME280;4798;41.574;23.734;2023-01-30T05:44:52;95365.06;;;1.74;84.59
9521;BME280;4798;41.574;23.734;2023-01-30T05:47:21;95328.72;;;1.90;84.31
9521;BME280;4798;41.574;23.734;2023-01-30T05:49:49;95381.59;;;2.53;83.13
9521;BME280;4798;41.574;23.734;2023-01-30T05:52:17;95368.00;;;2.27;83.42
9521;BME280;4798;41.574;23.734;2023-01-30T05:54:47;95386.03;;;2.71;83.07
9521;BME280;4798;41.574;23.734;2023-01-30T05:57:15;95365.63;;;2.62;83.17
9521;BME280;4798;41.574;23.734;2023-01-30T05:59:43;95395.44;;;2.42;83.31
9521;BME280;4798;41.574;23.734;2023-01-30T06:02:12;95396.75;;;2.70;82.30
9521;BME280;4798;41.574;23.734;2023-01-30T06:04:40;95394.84;;;2.58;84.13
9521;BME280;4798;41.574;23.734;2023-01-30T06:07:08;95394.31;;;2.32;85.62
9521;BME280;4798;41.574;23.734;2023-01-30T06:09:37;95397.88;;;2.74;84.77
9521;BME280;4798;41.574;23.734;2023-01-30T06:12:07;95401.97;;;2.70;84.68
9521;BME280;4798;41.574;23.734;2023-01-30T06:14:35;95398.50;;;2.58;85.25
9521;BME280;4798;41.574;23.734;2023-01-30T06:17:04;95396.31;;;2.91;85.44
9521;BME280;4798;41.574;23.734;2023-01-30T06:19:32;95376.59;;;2.88;84.61
9521;BME280;4798;41.574;23.734;2023-01-30T06:22:00;95381.75;;;2.95;83.99
9521;BME280;4798;41.574;23.734;2023-01-30T06:24:30;95377.53;;;2.94;83.46
9521;BME280;4798;41.574;23.734;2023-01-30T06:26:58;95401.31;;;3.10;82.02
9521;BME280;4798;41.574;23.734;2023-01-30T06:29:28;95399.97;;;3.01;82.29
9521;BME280;4798;41.574;23.734;2023-01-30T06:31:56;95387.13;;;3.30;82.30
9521;BME280;4798;41.574;23.734;2023-01-30T06:34:24;95371.69;;;3.10;79.96
9521;BME280;4798;41.574;23.734;2023-01-30T06:36:53;95391.38;;;3.31;80.21
9521;BME280;4798;41.574;23.734;2023-01-30T06:39:21;95382.81;;;3.65;79.23
9521;BME280;4798;41.574;23.734;2023-01-30T06:41:49;95382.72;;;3.71;79.51
9521;BME280;4798;41.574;23.734;2023-01-30T06:44:18;95385.91;;;3.85;78.75
9521;BME280;4798;41.574;23.734;2023-01-30T06:46:47;95377.16;;;3.91;77.67
9521;BME280;4798;41.574;23.734;2023-01-30T06:49:16;95388.34;;;3.87;77.89
9521;BME280;4798;41.574;23.734;2023-01-30T06:51:44;95377.53;;;3.95;77.25
9521;BME280;4798;41.574;23.734;2023-01-30T06:54:12;95364.91;;;3.62;77.93
9521;BME280;4798;41.574;23.734;2023-01-30T06:56:41;95386.78;;;3.56;79.19
9521;BME280;4798;41.574;23.734;2023-01-30T06:59:09;95386.00;;;3.67;79.78
9521;BME280;4798;41.574;23.734;2023-01-30T07:01:37;95385.47;;;3.76;77.70
9521;BME280;4798;41.574;23.734;2023-01-30T07:04:07;95386.91;;;3.61;78.11
9521;BME280;4798;41.574;23.734;2023-01-30T07:06:38;95382.41;;;3.38;79.01
9521;BME280;4798;41.574;23.734;2023-01-30T07:09:07;95384.22;;;3.08;78.58
9521;BME280;4798;41.574;23.734;2023-01-30T07:11:35;95374.81;;;3.18;79.38
9521;BME280;4798;41.574;23.734;2023-01-30T07:14:03;95386.47;;;3.75;78.03
9521;BME280;4798;41.574;23.734;2023-01-30T07:16:34;95384.75;;;3.69;77.60
9521;BME280;4798;41.574;23.734;2023-01-30T07:19:02;95377.06;;;3.98;76.65
9521;BME280;4798;41.574;23.734;2023-01-30T07:21:32;95378.56;;;4.28;75.39
9521;BME280;4798;41.574;23.734;2023-01-30T07:24:00;95385.06;;;4.49;73.71
9521;BME280;4798;41.574;23.734;2023-01-30T07:26:28;95376.88;;;4.22;73.43
9521;BME280;4798;41.574;23.734;2023-01-30T07:28:57;95327.13;;;4.04;72.25
9521;BME280;4798;41.574;23.734;2023-01-30T07:31:25;95362.81;;;4.28;72.54
9521;BME280;4798;41.574;23.734;2023-01-30T07:33:54;95378.22;;;4.60;71.63
9521;BME280;4798;41.574;23.734;2023-01-30T07:36:22;95378.94;;;4.83;69.87
9521;BME280;4798;41.574;23.734;2023-01-30T07:38:52;95372.09;;;5.22;68.69
9521;BME280;4798;41.574;23.734;2023-01-30T07:41:20;95375.44;;;4.78;69.83
9521;BME280;4798;41.574;23.734;2023-01-30T07:43:48;95377.13;;;4.95;68.56
9521;BME280;4798;41.574;23.734;2023-01-30T07:46:17;95375.16;;;5.02;68.13
9521;BME280;4798;41.574;23.734;2023-01-30T07:48:45;95375.72;;;5.04;68.85
9521;BME280;4798;41.574;23.734;2023-01-30T07:51:13;95342.28;;;4.88;67.33
9521;BME280;4798;41.574;23.734;2023-01-30T07:53:42;95374.78;;;5.10;66.02
9521;BME280;4798;41.574;23.734;2023-01-30T07:56:13;95379.66;;;5.47;66.80
9521;BME280;4798;41.574;23.734;2023-01-30T07:58:44;95370.09;;;5.12;66.19
9521;BME280;4798;41.574;23.734;2023-01-30T08:01:12;95379.19;;;5.50;67.00
9521;BME280;4798;41.574;23.734;2023-01-30T08:03:41;95375.28;;;5.52;66.93
9521;BME280;4798;41.574;23.734;2023-01-30T08:06:11;95305.31;;;4.78;68.67
9521;BME280;4798;41.574;23.734;2023-01-30T08:08:41;95371.19;;;5.56;67.60
9521;BME280;4798;41.574;23.734;2023-01-30T08:11:09;95374.81;;;5.55;67.01
9521;BME280;4798;41.574;23.734;2023-01-30T08:13:39;95377.06;;;5.19;66.92
9521;BME280;4798;41.574;23.734;2023-01-30T08:16:07;95370.91;;;4.50;68.97
9521;BME280;4798;41.574;23.734;2023-01-30T08:18:35;95377.25;;;4.66;69.19
9521;BME280;4798;41.574;23.734;2023-01-30T08:21:05;95369.28;;;4.72;69.33
9521;BME280;4798;41.574;23.734;2023-01-30T08:23:34;95356.84;;;4.56;70.13
9521;BME280;4798;41.574;23.734;2023-01-30T08:26:03;95381.06;;;5.09;70.37
9521;BME280;4798;41.574;23.734;2023-01-30T08:28:32;95357.94;;;4.95;70.64
9521;BME280;4798;41.574;23.734;2023-01-30T08:31:01;95367.47;;;5.41;69.13
9521;BME280;4798;41.574;23.734;2023-01-30T08:33:32;95363.09;;;5.18;69.73
9521;BME280;4798;41.574;23.734;2023-01-30T08:36:01;95357.13;;;4.94;68.67
9521;BME280;4798;41.574;23.734;2023-01-30T08:38:29;95372.72;;;5.12;68.97
9521;BME280;4798;41.574;23.734;2023-01-30T08:40:57;95356.00;;;5.47;68.20
9521;BME280;4798;41.574;23.734;2023-01-30T08:43:26;95366.38;;;5.53;68.61
9521;BME280;4798;41.574;23.734;2023-01-30T08:45:55;95349.25;;;5.51;67.77
9521;BME280;4798;41.574;23.734;2023-01-30T08:48:25;95353.16;;;5.48;67.57
9521;BME280;4798;41.574;23.734;2023-01-30T08:50:57;95354.66;;;5.89;67.27
9521;BME280;4798;41.574;23.734;2023-01-30T08:53:26;95346.81;;;6.27;65.02
9521;BME280;4798;41.574;23.734;2023-01-30T08:55:54;95341.09;;;6.14;65.16
9521;BME280;4798;41.574;23.734;2023-01-30T08:58:22;95343.63;;;6.25;65.51
9521;BME280;4798;41.574;23.734;2023-01-30T09:00:50;95341.47;;;6.39;66.26
9521;BME280;4798;41.574;23.734;2023-01-30T09:03:19;95338.03;;;6.38;63.65
9521;BME280;4798;41.574;23.734;2023-01-30T09:05:53;95334.09;;;6.79;58.81
9521;BME280;4798;41.574;23.734;2023-01-30T09:08:22;95329.19;;;6.66;59.73
9521;BME280;4798;41.574;23.734;2023-01-30T09:10:51;95317.84;;;6.44;61.68
9521;BME280;4798;41.574;23.734;2023-01-30T09:13:19;95316.56;;;6.47;61.35
9521;BME280;4798;41.574;23.734;2023-01-30T09:15:47;95303.78;;;6.17;61.31
9521;BME280;4798;41.574;23.734;2023-01-30T09:18:16;95300.47;;;6.65;58.00
9521;BME280;4798;41.574;23.734;2023-01-30T09:20:44;95298.69;;;6.92;59.06
9521;BME280;4798;41.574;23.734;2023-01-30T09:23:15;95283.00;;;6.59;59.55
9521;BME280;4798;41.574;23.734;2023-01-30T09:25:43;95289.97;;;6.91;59.12
9521;BME280;4798;41.574;23.734;2023-01-30T09:28:13;95300.84;;;6.52;57.40
9521;BME280;4798;41.574;23.734;2023-01-30T09:30:41;95295.50;;;6.68;58.13
9521;BME280;4798;41.574;23.734;2023-01-30T09:33:10;95281.16;;;6.81;57.19
9521;BME280;4798;41.574;23.734;2023-01-30T09:35:38;95286.19;;;6.82;57.96
9521;BME280;4798;41.574;23.734;2023-01-30T09:38:06;95284.97;;;6.90;56.65
9521;BME280;4798;41.574;23.734;2023-01-30T09:40:46;95284.16;;;7.69;57.06
9521;BME280;4798;41.574;23.734;2023-01-30T09:43:32;95256.94;;;8.01;55.51
9521;BME280;4798;41.574;23.734;2023-01-30T09:46:17;95279.59;;;7.92;54.41
9521;BME280;4798;41.574;23.734;2023-01-30T09:48:56;95278.25;;;7.57;55.90
9521;BME280;4798;41.574;23.734;2023-01-30T09:51:33;95270.03;;;7.86;56.32
9521;BME280;4798;41.574;23.734;2023-01-30T09:54:14;95272.47;;;7.60;57.20
9521;BME280;4798;41.574;23.734;2023-01-30T09:56:45;95269.53;;;7.25;56.10
9521;BME280;4798;41.574;23.734;2023-01-30T09:59:18;95258.91;;;7.47;55.74
9521;BME280;4798;41.574;23.734;2023-01-30T10:01:55;95264.75;;;7.86;54.91
9521;BME280;4798;41.574;23.734;2023-01-30T10:04:30;95263.06;;;8.06;55.05
9521;BME280;4798;41.574;23.734;2023-01-30T10:07:06;95267.44;;;7.27;55.32
9521;BME280;4798;41.574;23.734;2023-01-30T10:09:44;95196.09;;;7.07;53.99
9521;BME280;4798;41.574;23.734;2023-01-30T10:12:31;95253.78;;;7.09;55.55
9521;BME280;4798;41.574;23.734;2023-01-30T10:15:25;95245.84;;;7.30;53.57
9521;BME280;4798;41.574;23.734;2023-01-30T10:18:06;95230.84;;;7.67;53.10
9521;BME280;4798;41.574;23.734;2023-01-30T10:20:44;95223.78;;;7.73;55.08
9521;BME280;4798;41.574;23.734;2023-01-30T10:23:38;95222.81;;;7.52;53.85
9521;BME280;4798;41.574;23.734;2023-01-30T10:26:15;95220.47;;;8.29;51.59
9521;BME280;4798;41.574;23.734;2023-01-30T10:28:53;95208.66;;;8.52;50.72
9521;BME280;4798;41.574;23.734;2023-01-30T10:31:38;95208.84;;;7.89;52.55
9521;BME280;4798;41.574;23.734;2023-01-30T10:34:12;95190.28;;;8.20;51.20
9521;BME280;4798;41.574;23.734;2023-01-30T10:36:47;95189.97;;;8.12;51.90
9521;BME280;4798;41.574;23.734;2023-01-30T10:39:23;95188.44;;;8.21;50.46
9521;BME280;4798;41.574;23.734;2023-01-30T10:42:03;95175.31;;;8.36;51.65
9521;BME280;4798;41.574;23.734;2023-01-30T10:44:39;95171.78;;;7.68;51.92
9521;BME280;4798;41.574;23.734;2023-01-30T10:47:26;95150.34;;;7.18;51.21
9521;BME280;4798;41.574;23.734;2023-01-30T10:50:15;95124.72;;;7.50;51.88
9521;BME280;4798;41.574;23.734;2023-01-30T10:52:51;95144.47;;;7.95;51.95
9521;BME280;4798;41.574;23.734;2023-01-30T10:55:29;95154.97;;;8.26;52.41
9521;BME280;4798;41.574;23.734;2023-01-30T10:58:11;95150.88;;;8.81;50.31
9521;BME280;4798;41.574;23.734;2023-01-30T11:00:47;95145.25;;;8.42;50.96
9521;BME280;4798;41.574;23.734;2023-01-30T11:03:26;95136.28;;;8.53;50.62
9521;BME280;4798;41.574;23.734;2023-01-30T11:05:59;95134.75;;;8.62;51.74
9521;BME280;4798;41.574;23.734;2023-01-30T11:08:30;95135.78;;;8.61;50.91
9521;BME280;4798;41.574;23.734;2023-01-30T11:10:59;95128.69;;;8.82;52.00
9521;BME280;4798;41.574;23.734;2023-01-30T11:13:29;95114.97;;;8.95;49.58
9521;BME280;4798;41.574;23.734;2023-01-30T11:16:03;95106.47;;;8.78;50.26
9521;BME280;4798;41.574;23.734;2023-01-30T11:18:43;95101.25;;;8.06;49.07
9521;BME280;4798;41.574;23.734;2023-01-30T11:21:32;95104.09;;;7.89;49.73
9521;BME280;4798;41.574;23.734;2023-01-30T11:24:14;95100.03;;;7.25;49.76
9521;BME280;4798;41.574;23.734;2023-01-30T11:26:45;95092.38;;;7.70;49.25
9521;BME280;4798;41.574;23.734;2023-01-30T11:29:23;95084.22;;;8.39;50.05
9521;BME280;4798;41.574;23.734;2023-01-30T11:31:53;95076.38;;;9.14;50.51
9521;BME280;4798;41.574;23.734;2023-01-30T11:34:23;95050.19;;;8.52;47.38
9521;BME280;4798;41.574;23.734;2023-01-30T11:36:51;95068.19;;;9.06;48.62
9521;BME280;4798;41.574;23.734;2023-01-30T11:39:22;95033.22;;;9.29;46.60
9521;BME280;4798;41.574;23.734;2023-01-30T11:41:57;95053.97;;;9.91;46.93
9521;BME280;4798;41.574;23.734;2023-01-30T11:44:29;95044.19;;;9.86;50.92
9521;BME280;4798;41.574;23.734;2023-01-30T11:47:01;95050.81;;;9.84;46.98
9521;BME280;4798;41.574;23.734;2023-01-30T11:49:34;95028.78;;;9.14;49.58
9521;BME280;4798;41.574;23.734;2023-01-30T11:52:25;95042.28;;;8.82;50.40
9521;BME280;4798;41.574;23.734;2023-01-30T11:54:57;95035.75;;;9.74;49.49
9521;BME280;4798;41.574;23.734;2023-01-30T11:57:38;95030.78;;;9.63;52.75
9521;BME280;4798;41.574;23.734;2023-01-30T12:00:13;95023.19;;;9.36;47.88
9521;BME280;4798;41.574;23.734;2023-01-30T12:02:47;95016.34;;;9.20;48.90
9521;BME280;4798;41.574;23.734;2023-01-30T12:05:22;95023.09;;;9.71;48.36
9521;BME280;4798;41.574;23.734;2023-01-30T12:07:52;95014.50;;;9.89;48.24
9521;BME280;4798;41.574;23.734;2023-01-30T12:10:29;95020.06;;;8.58;50.41
9521;BME280;4798;41.574;23.734;2023-01-30T12:12:59;95011.00;;;8.09;51.72
9521;BME280;4798;41.574;23.734;2023-01-30T12:15:30;95007.66;;;8.39;51.60
9521;BME280;4798;41.574;23.734;2023-01-30T12:18:04;95005.03;;;8.69;52.73
9521;BME280;4798;41.574;23.734;2023-01-30T12:20:47;95002.09;;;8.85;51.25
9521;BME280;4798;41.574;23.734;2023-01-30T12:23:23;94996.28;;;8.83;50.56
9521;BME280;4798;41.574;23.734;2023-01-30T12:25:58;94990.25;;;10.31;50.60
9521;BME280;4798;41.574;23.734;2023-01-30T12:28:34;94976.44;;;10.34;48.54
9521;BME280;4798;41.574;23.734;2023-01-30T12:31:11;94965.63;;;10.93;47.13
9521;BME280;4798;41.574;23.734;2023-01-30T12:33:42;94968.25;;;9.77;48.25
9521;BME280;4798;41.574;23.734;2023-01-30T12:36:19;94968.22;;;10.98;48.73
9521;BME280;4798;41.574;23.734;2023-01-30T12:38:56;94913.03;;;10.76;45.11
9521;BME280;4798;41.574;23.734;2023-01-30T12:41:44;94962.84;;;11.56;47.48
9521;BME280;4798;41.574;23.734;2023-01-30T12:44:33;94960.06;;;10.61;46.01
9521;BME280;4798;41.574;23.734;2023-01-30T12:47:18;94966.88;;;9.89;48.86
9521;BME280;4798;41.574;23.734;2023-01-30T12:50:12;94971.53;;;9.58;49.29
9521;BME280;4798;41.574;23.734;2023-01-30T12:55:50;94972.53;;;8.28;49.39
9521;BME280;4798;41.574;23.734;2023-01-30T12:58:25;94961.44;;;8.41;50.87
9521;BME280;4798;41.574;23.734;2023-01-30T13:01:08;94956.69;;;8.48;50.45
9521;BME280;4798;41.574;23.734;2023-01-30T13:03:53;94960.41;;;8.57;50.37
9521;BME280;4798;41.574;23.734;2023-01-30T13:06:47;94940.38;;;7.44;51.52
9521;BME280;4798;41.574;23.734;2023-01-30T13:09:38;94940.28;;;8.11;51.26
9521;BME280;4798;41.574;23.734;2023-01-30T13:12:14;94844.72;;;7.89;50.11
9521;BME280;4798;41.574;23.734;2023-01-30T13:14:51;94938.34;;;7.66;51.10
9521;BME280;4798;41.574;23.734;2023-01-30T13:17:36;94950.28;;;8.04;50.85
9521;BME280;4798;41.574;23.734;2023-01-30T13:20:18;94932.91;;;8.33;50.27
9521;BME280;4798;41.574;23.734;2023-01-30T13:22:56;94938.44;;;8.11;51.09
9521;BME280;4798;41.574;23.734;2023-01-30T13:25:33;94942.78;;;7.50;51.47
9521;BME280;4798;41.574;23.734;2023-01-30T13:28:11;94902.72;;;7.53;53.03
9521;BME280;4798;41.574;23.734;2023-01-30T13:30:43;94934.78;;;7.30;53.38
9521;BME280;4798;41.574;23.734;2023-01-30T13:33:14;94940.63;;;7.42;53.56
9521;BME280;4798;41.574;23.734;2023-01-30T13:35:50;94933.22;;;7.39;53.74
9521;BME280;4798;41.574;23.734;2023-01-30T13:38:24;94871.19;;;7.12;53.62
9521;BME280;4798;41.574;23.734;2023-01-30T13:40:56;94929.09;;;7.53;53.25
9521;BME280;4798;41.574;23.734;2023-01-30T13:43:28;94935.50;;;7.11;53.94
9521;BME280;4798;41.574;23.734;2023-01-30T13:46:03;94927.09;;;6.67;54.81
9521;BME280;4798;41.574;23.734;2023-01-30T13:48:44;94926.59;;;6.70;54.34
9521;BME280;4798;41.574;23.734;2023-01-30T13:51:22;94922.28;;;6.59;54.73
9521;BME280;4798;41.574;23.734;2023-01-30T13:54:05;94920.91;;;6.51;54.67
9521;BME280;4798;41.574;23.734;2023-01-30T13:56:40;94921.50;;;6.58;55.50